Time;durP1;ratioP1;P1;durP2;ratioP2;P2;SDS_P1;SDS_P2;PMS_P1;PMS_P2;Temp;Humidity;BMP_temperature;BMP_pressure;BME280_temperature;BME280_humidity;BME280_pressure;Samples;Min_cycle;Max_cycle;Signal;HPM_P1;HPM_P2
2021/03/29 00:01:13;;;;;;;7.57;4.88;;;9.20;54.60;;;;;;5132819;27;20189;-81
2021/03/29 00:03:40;;;;;;;7.32;3.85;;;9.20;54.60;;;;;;5132430;27;20228;-81
2021/03/29 00:06:07;;;;;;;5.50;4.65;;;9.20;54.60;;;;;;5132503;27;20667;-81
2021/03/29 00:08:34;;;;;;;5.88;4.30;;;9.20;54.50;;;;;;5131955;27;20198;-81
2021/03/29 00:11:03;;;;;;;4.95;3.83;;;9.20;54.40;;;;;;5131874;27;20193;-81
2021/03/29 00:13:31;;;;;;;7.90;4.43;;;9.20;54.60;;;;;;5132020;27;20848;-80
2021/03/29 00:15:59;;;;;;;11.18;4.40;;;9.20;54.20;;;;;;5132857;27;20266;-81
2021/03/29 00:18:26;;;;;;;8.50;3.90;;;9.30;54.30;;;;;;5131771;27;20220;-81
2021/03/29 00:20:55;;;;;;;7.32;3.80;;;9.30;54.50;;;;;;5132748;27;20268;-81
2021/03/29 00:23:23;;;;;;;4.35;4.03;;;9.10;54.90;;;;;;5132846;27;20193;-80
2021/03/29 00:25:50;;;;;;;4.75;4.13;;;9.10;55.50;;;;;;5132617;27;20921;-80
2021/03/29 00:28:17;;;;;;;4.00;3.60;;;9.10;55.50;;;;;;5126389;27;20280;-79
2021/03/29 00:30:47;;;;;;;7.22;3.70;;;9.00;55.20;;;;;;5131736;27;20201;-81
2021/03/29 00:33:15;;;;;;;5.68;3.78;;;9.10;55.90;;;;;;5134040;27;20197;-81
2021/03/29 00:35:44;;;;;;;5.20;3.97;;;9.00;55.40;;;;;;5131734;27;20224;-81
2021/03/29 00:38:12;;;;;;;8.35;3.50;;;8.90;55.50;;;;;;5132843;27;20208;-81
2021/03/29 00:40:39;;;;;;;4.07;3.35;;;8.90;55.60;;;;;;5132823;27;20263;-80
2021/03/29 00:43:12;;;;;;;3.67;3.33;;;9.00;55.60;;;;;;5131677;27;20189;-81
2021/03/29 00:45:42;;;;;;;3.60;3.30;;;8.90;55.20;;;;;;5132228;27;20291;-81
2021/03/29 00:48:09;;;;;;;5.22;3.75;;;8.90;55.40;;;;;;5131468;27;20201;-81
2021/03/29 00:50:43;;;;;;;8.38;3.80;;;8.90;55.30;;;;;;5132320;27;20229;-81
2021/03/29 00:53:11;;;;;;;3.50;3.20;;;8.90;55.40;;;;;;5132269;27;20678;-80
2021/03/29 00:55:38;;;;;;;3.22;2.95;;;8.80;55.40;;;;;;5131541;27;20217;-81
2021/03/29 00:58:06;;;;;;;6.60;3.78;;;8.90;55.70;;;;;;5131588;27;20208;-81
2021/03/29 01:00:39;;;;;;;3.90;3.10;;;8.80;54.90;;;;;;5130005;27;20200;-80
2021/03/29 01:03:14;;;;;;;4.03;3.60;;;8.80;55.30;;;;;;5127772;27;20196;-81
2021/03/29 01:05:43;;;;;;;6.78;3.90;;;8.90;55.60;;;;;;5131993;27;20200;-81
2021/03/29 01:08:14;;;;;;;5.97;3.35;;;8.90;55.20;;;;;;5130184;27;20194;-80
2021/03/29 01:10:43;;;;;;;3.40;3.10;;;8.90;54.90;;;;;;5125823;27;20274;-81
2021/03/29 01:13:16;;;;;;;5.25;4.28;;;8.90;54.80;;;;;;5125593;27;20216;-81
2021/03/29 01:15:46;;;;;;;5.70;3.60;;;8.90;54.70;;;;;;5131343;27;20217;-81
2021/03/29 01:18:16;;;;;;;4.97;3.08;;;8.80;55.00;;;;;;5132126;27;20228;-81
2021/03/29 01:21:02;;;;;;;3.70;3.35;;;8.80;55.10;;;;;;5132006;27;20244;-81
2021/03/29 01:23:32;;;;;;;3.25;3.05;;;8.70;55.30;;;;;;5130942;27;20205;-81
2021/03/29 01:26:06;;;;;;;3.70;2.90;;;8.60;55.30;;;;;;5132087;27;20194;-80
2021/03/29 01:28:35;;;;;;;3.65;2.97;;;8.60;55.40;;;;;;5131544;27;20238;-81
2021/03/29 01:31:04;;;;;;;4.00;3.40;;;8.70;55.50;;;;;;5131299;27;20246;-80
2021/03/29 01:33:35;;;;;;;4.05;3.45;;;8.60;55.80;;;;;;5131054;27;20573;-80
2021/03/29 01:36:04;;;;;;;4.05;2.97;;;8.30;55.80;;;;;;5125809;27;20295;-81
2021/03/29 01:38:32;;;;;;;3.88;3.45;;;8.30;56.10;;;;;;5130952;27;20200;-81
2021/03/29 01:41:00;;;;;;;4.78;3.80;;;8.20;56.40;;;;;;5131882;27;20204;-80
2021/03/29 01:43:29;;;;;;;3.95;3.55;;;8.20;56.10;;;;;;5130388;27;20197;-81
2021/03/29 01:45:59;;;;;;;5.75;3.30;;;8.20;55.90;;;;;;5131389;27;20253;-80
2021/03/29 01:48:27;;;;;;;3.83;3.45;;;8.00;56.10;;;;;;5120056;27;20783;-81
2021/03/29 01:50:56;;;;;;;4.88;3.67;;;8.00;56.40;;;;;;5131668;27;20201;-80
2021/03/29 01:53:29;;;;;;;4.30;3.90;;;8.00;56.40;;;;;;5130917;27;20189;-81
2021/03/29 01:55:57;;;;;;;4.55;3.30;;;7.90;56.40;;;;;;5131402;27;20228;-81
2021/03/29 01:58:24;;;;;;;5.22;3.33;;;7.90;56.70;;;;;;5130876;27;20201;-81
2021/03/29 02:00:56;;;;;;;5.75;3.38;;;7.90;56.50;;;;;;5130635;27;20212;-81
2021/03/29 02:03:25;;;;;;;4.13;3.50;;;7.90;56.60;;;;;;5130874;27;20716;-81
2021/03/29 02:05:54;;;;;;;3.50;3.20;;;7.70;56.80;;;;;;5130019;27;20245;-81
2021/03/29 02:08:24;;;;;;;4.45;3.30;;;7.80;56.60;;;;;;5110853;28;20215;-81
2021/03/29 02:10:55;;;;;;;4.22;3.83;;;7.80;56.60;;;;;;5127871;27;20200;-81
2021/03/29 02:13:29;;;;;;;6.40;3.30;;;7.70;57.10;;;;;;5129460;27;20658;-81
2021/03/29 02:15:59;;;;;;;4.40;4.00;;;7.70;56.90;;;;;;5130601;27;20229;-81
2021/03/29 02:18:30;;;;;;;5.18;3.35;;;7.70;56.80;;;;;;5130974;27;20276;-82
2021/03/29 02:21:00;;;;;;;6.38;4.07;;;7.60;56.60;;;;;;5131399;27;20193;-82
2021/03/29 02:23:28;;;;;;;4.35;3.25;;;7.70;57.10;;;;;;5124729;27;20525;-81
2021/03/29 02:25:55;;;;;;;4.40;3.80;;;7.60;56.90;;;;;;5129686;27;20189;-81
2021/03/29 02:28:23;;;;;;;3.95;3.60;;;7.70;56.90;;;;;;5124397;27;20197;-81
2021/03/29 02:30:50;;;;;;;4.20;3.45;;;7.50;56.90;;;;;;5130608;27;20193;-81
2021/03/29 02:33:18;;;;;;;3.92;3.35;;;7.60;57.00;;;;;;5129620;28;20189;-80
2021/03/29 02:35:46;;;;;;;3.47;3.17;;;7.60;56.70;;;;;;5130035;28;20209;-81
2021/03/29 02:38:14;;;;;;;5.50;3.67;;;7.30;56.60;;;;;;5129566;28;20655;-81
2021/03/29 02:40:42;;;;;;;5.65;3.70;;;7.20;56.60;;;;;;5130452;28;20201;-81
2021/03/29 02:43:10;;;;;;;4.07;3.22;;;7.30;56.90;;;;;;5129396;28;20193;-81
2021/03/29 02:45:40;;;;;;;5.50;4.22;;;7.50;57.00;;;;;;5130535;28;20662;-81
2021/03/29 02:48:09;;;;;;;7.57;3.70;;;7.40;57.30;;;;;;5130737;28;20519;-81
2021/03/29 02:50:38;;;;;;;3.50;3.20;;;7.40;56.90;;;;;;5130362;28;20193;-80
2021/03/29 02:53:12;;;;;;;3.45;3.15;;;7.40;56.80;;;;;;5130011;28;20689;-83
2021/03/29 02:55:39;;;;;;;3.60;3.30;;;7.20;57.10;;;;;;5130267;28;20231;-81
2021/03/29 02:58:07;;;;;;;3.75;3.20;;;7.20;57.10;;;;;;5129757;28;20261;-82
2021/03/29 03:00:35;;;;;;;4.35;3.80;;;7.30;56.90;;;;;;5130460;28;20192;-83
2021/03/29 03:03:04;;;;;;;4.28;3.88;;;7.20;57.00;;;;;;5129943;28;20185;-82
2021/03/29 03:05:34;;;;;;;5.50;3.65;;;7.10;57.00;;;;;;5130182;28;20221;-83
2021/03/29 03:08:01;;;;;;;4.60;3.30;;;7.10;57.10;;;;;;5130020;28;20731;-83
2021/03/29 03:10:30;;;;;;;5.95;3.80;;;7.00;57.40;;;;;;5129728;27;20202;-83
2021/03/29 03:12:59;;;;;;;4.45;3.63;;;6.90;57.40;;;;;;5129705;28;20602;-82
2021/03/29 03:15:27;;;;;;;6.63;3.40;;;6.90;58.10;;;;;;5130963;27;20560;-83
2021/03/29 03:17:55;;;;;;;3.60;3.28;;;7.00;58.00;;;;;;5150953;27;20234;-82
2021/03/29 03:20:22;;;;;;;4.30;3.90;;;6.90;57.40;;;;;;5132443;27;20197;-83
2021/03/29 03:22:51;;;;;;;5.20;4.10;;;6.80;57.90;;;;;;5129678;27;20190;-83
2021/03/29 03:25:23;;;;;;;4.70;3.88;;;6.80;58.10;;;;;;5130881;27;20201;-82
2021/03/29 03:27:51;;;;;;;3.85;3.40;;;6.90;58.00;;;;;;5133537;27;20189;-83
2021/03/29 03:30:21;;;;;;;3.90;3.45;;;7.10;57.70;;;;;;5133717;27;20194;-83
2021/03/29 03:32:47;;;;;;;6.50;3.20;;;6.90;57.50;;;;;;5133789;27;20236;-82
2021/03/29 03:35:16;;;;;;;3.90;3.47;;;6.80;57.90;;;;;;5134024;27;20317;-82
2021/03/29 03:37:47;;;;;;;5.13;3.42;;;6.80;57.90;;;;;;5134169;27;20213;-82
2021/03/29 03:40:14;;;;;;;4.55;3.38;;;6.80;57.90;;;;;;5134136;27;20206;-82
2021/03/29 03:42:43;;;;;;;3.50;2.70;;;6.70;57.90;;;;;;5132971;27;21157;-82
2021/03/29 03:45:11;;;;;;;4.60;3.05;;;6.70;57.70;;;;;;5133092;27;20533;-82
2021/03/29 03:47:39;;;;;;;3.80;2.80;;;6.90;57.60;;;;;;5134041;27;20185;-82
2021/03/29 03:50:09;;;;;;;4.97;3.47;;;6.90;57.70;;;;;;5133878;27;20603;-82
2021/03/29 03:52:36;;;;;;;4.00;2.97;;;7.00;56.90;;;;;;5133177;27;20188;-82
2021/03/29 03:55:04;;;;;;;4.20;3.38;;;7.10;56.60;;;;;;5133389;27;20662;-82
2021/03/29 03:57:31;;;;;;;4.40;3.10;;;7.20;56.70;;;;;;5132410;27;20216;-82
2021/03/29 03:59:58;;;;;;;5.78;3.42;;;7.10;57.00;;;;;;5133639;27;20201;-82
2021/03/29 04:02:25;;;;;;;3.85;3.40;;;7.00;56.90;;;;;;5132694;27;20212;-82
2021/03/29 04:04:52;;;;;;;3.33;3.03;;;7.00;57.20;;;;;;5133390;27;20230;-82
2021/03/29 04:07:18;;;;;;;3.60;3.30;;;7.00;57.20;;;;;;5133146;27;20201;-82
2021/03/29 04:09:47;;;;;;;4.75;3.38;;;7.00;57.10;;;;;;5127990;27;20232;-83
2021/03/29 04:12:14;;;;;;;3.28;2.85;;;6.90;57.00;;;;;;5131801;27;20201;-83
2021/03/29 04:14:41;;;;;;;4.90;3.28;;;7.00;57.20;;;;;;5133013;27;20205;-83
2021/03/29 04:17:07;;;;;;;6.18;5.57;;;6.90;57.10;;;;;;5133704;27;20220;-83
2021/03/29 04:19:35;;;;;;;10.35;4.15;;;6.90;57.30;;;;;;5133059;27;20239;-82
2021/03/29 04:22:01;;;;;;;6.22;3.40;;;6.90;57.40;;;;;;5132814;27;20193;-83
2021/03/29 04:24:28;;;;;;;7.57;3.85;;;6.90;57.40;;;;;;5132499;27;20646;-82
2021/03/29 04:26:55;;;;;;;3.75;3.45;;;6.80;57.20;;;;;;5133093;27;20539;-82
2021/03/29 04:29:21;;;;;;;4.57;3.53;;;6.80;57.50;;;;;;5128588;27;20198;-82
2021/03/29 04:31:48;;;;;;;12.57;3.97;;;6.90;57.70;;;;;;5133241;27;20205;-82
2021/03/29 04:34:14;;;;;;;4.80;3.55;;;7.00;57.60;;;;;;5132013;27;20197;-82
2021/03/29 04:36:41;;;;;;;5.07;4.40;;;6.90;57.60;;;;;;5132111;27;20615;-82
2021/03/29 04:39:08;;;;;;;8.20;4.13;;;6.80;57.70;;;;;;5131578;27;20234;-82
2021/03/29 04:41:34;;;;;;;9.50;4.00;;;6.90;57.80;;;;;;5133493;27;20193;-82
2021/03/29 04:44:01;;;;;;;9.90;3.60;;;7.10;57.60;;;;;;5132045;27;20208;-82
2021/03/29 04:46:27;;;;;;;5.28;4.78;;;7.00;57.90;;;;;;5133296;27;20193;-82
2021/03/29 04:48:53;;;;;;;6.55;4.50;;;6.90;58.00;;;;;;5132481;27;20265;-82
2021/03/29 04:51:20;;;;;;;4.63;3.83;;;7.00;58.10;;;;;;5133349;27;20190;-82
2021/03/29 04:53:47;;;;;;;5.53;3.90;;;7.00;58.10;;;;;;5131092;27;20217;-83
2021/03/29 04:56:14;;;;;;;8.57;4.60;;;7.00;58.20;;;;;;5132770;27;20293;-82
2021/03/29 04:58:40;;;;;;;15.32;4.32;;;7.10;58.20;;;;;;5132440;27;20206;-82
2021/03/29 05:01:07;;;;;;;6.00;4.22;;;7.20;58.00;;;;;;5127050;27;20206;-80
2021/03/29 05:03:33;;;;;;;4.75;4.35;;;7.20;58.00;;;;;;5131980;27;20205;-82
2021/03/29 05:06:00;;;;;;;4.82;4.35;;;7.30;57.80;;;;;;5117303;27;20242;-83
2021/03/29 05:08:26;;;;;;;8.98;5.72;;;7.40;57.90;;;;;;5131622;27;20194;-83
2021/03/29 05:10:53;;;;;;;14.32;7.57;;;7.40;57.70;;;;;;5131546;27;20189;-83
2021/03/29 05:13:20;;;;;;;14.25;5.95;;;7.40;57.70;;;;;;5131557;27;20229;-83
2021/03/29 05:15:47;;;;;;;9.10;4.88;;;7.50;57.80;;;;;;5131212;27;20205;-81
2021/03/29 05:18:13;;;;;;;14.35;6.45;;;7.40;57.90;;;;;;5131536;27;20201;-83
2021/03/29 05:20:39;;;;;;;10.52;4.47;;;7.50;57.80;;;;;;5131065;27;20296;-83
2021/03/29 05:23:06;;;;;;;8.63;4.80;;;7.60;57.60;;;;;;5131506;27;20548;-82
2021/03/29 05:25:32;;;;;;;10.68;4.25;;;7.70;57.20;;;;;;5131826;27;20726;-83
2021/03/29 05:28:00;;;;;;;10.30;5.38;;;7.70;57.40;;;;;;5132049;27;20190;-82
2021/03/29 05:30:26;;;;;;;10.60;4.85;;;7.70;57.90;;;;;;5130773;27;20193;-83
2021/03/29 05:32:53;;;;;;;10.85;4.82;;;7.80;58.00;;;;;;5131314;27;20205;-83
2021/03/29 05:35:19;;;;;;;11.93;4.85;;;7.80;57.80;;;;;;5131231;27;20189;-83
2021/03/29 05:37:46;;;;;;;10.20;4.68;;;7.90;57.50;;;;;;5131729;27;20193;-82
2021/03/29 05:40:18;;;;;;;9.73;4.70;;;7.90;57.20;;;;;;5131362;27;20197;-83
2021/03/29 05:42:45;;;;;;;23.55;6.82;;;8.00;57.20;;;;;;5131517;27;20296;-82
2021/03/29 05:45:13;;;;;;;17.00;5.28;;;8.00;57.70;;;;;;5132256;27;20221;-83
2021/03/29 05:48:09;;;;;;;9.48;5.03;;;8.00;57.80;;;;;;5131802;27;20273;-84
2021/03/29 05:50:52;;;;;;;12.27;4.80;;;8.10;57.50;;;;;;5131995;27;20256;-83
2021/03/29 05:53:18;;;;;;;11.57;5.28;;;8.20;57.40;;;;;;5127274;27;20201;-82
2021/03/29 05:55:47;;;;;;;5.60;5.05;;;8.20;57.50;;;;;;5130759;27;20232;-83
2021/03/29 05:58:33;;;;;;;6.53;5.50;;;8.30;57.50;;;;;;5130208;27;20761;-82
2021/03/29 06:01:00;;;;;;;5.05;4.55;;;8.20;57.60;;;;;;5119737;27;20258;-82
2021/03/29 06:03:29;;;;;;;8.23;5.10;;;8.30;57.50;;;;;;5131086;27;20197;-84
2021/03/29 06:05:59;;;;;;;7.50;4.18;;;8.30;57.50;;;;;;5131130;27;20208;-83
2021/03/29 06:08:27;;;;;;;7.22;4.63;;;8.30;57.10;;;;;;5131202;27;20629;-83
2021/03/29 06:10:54;;;;;;;5.82;4.45;;;8.20;57.40;;;;;;5112646;27;20209;-83
2021/03/29 06:13:24;;;;;;;9.32;4.93;;;8.50;58.00;;;;;;5131006;27;20662;-83
2021/03/29 06:16:05;;;;;;;6.20;4.93;;;8.50;57.60;;;;;;5131230;27;20275;-83
2021/03/29 06:18:32;;;;;;;7.53;4.40;;;8.60;57.80;;;;;;5131084;27;20202;-83
2021/03/29 06:21:06;;;;;;;7.45;4.68;;;8.70;57.10;;;;;;5131414;27;20201;-83
2021/03/29 06:23:34;;;;;;;6.93;5.55;;;8.70;56.70;;;;;;5130452;27;20635;-83
2021/03/29 06:26:22;;;;;;;7.38;4.95;;;8.80;56.30;;;;;;5130609;27;20670;-83
2021/03/29 06:28:49;;;;;;;7.47;4.82;;;8.90;56.10;;;;;;5124029;27;20208;-82
2021/03/29 06:31:28;;;;;;;6.75;5.30;;;8.90;55.70;;;;;;5130265;27;20193;-83
2021/03/29 06:33:56;;;;;;;4.88;4.25;;;9.00;55.70;;;;;;5130151;27;20599;-83
2021/03/29 06:36:34;;;;;;;7.47;5.15;;;9.00;55.50;;;;;;5129548;28;20593;-83
2021/03/29 06:39:12;;;;;;;7.35;5.22;;;9.20;55.80;;;;;;5130273;27;20189;-83
2021/03/29 06:41:39;;;;;;;9.52;6.10;;;9.20;55.60;;;;;;5131170;27;20200;-83
2021/03/29 06:44:06;;;;;;;5.63;5.13;;;9.30;55.80;;;;;;5128859;28;20192;-82
2021/03/29 06:46:34;;;;;;;8.25;5.60;;;9.40;55.80;;;;;;5130589;28;20601;-83
2021/03/29 06:49:02;;;;;;;7.35;5.80;;;9.60;55.80;;;;;;5130820;27;20205;-83
2021/03/29 06:51:30;;;;;;;8.23;6.03;;;9.70;55.80;;;;;;5129242;28;20201;-81
2021/03/29 06:54:01;;;;;;;13.40;7.60;;;9.80;55.30;;;;;;5128640;28;20193;-81
2021/03/29 06:56:31;;;;;;;10.15;5.70;;;9.90;55.60;;;;;;5126797;28;20262;-81
2021/03/29 06:59:07;;;;;;;7.20;5.30;;;10.00;55.00;;;;;;5127952;28;20193;-82
2021/03/29 07:01:36;;;;;;;9.32;5.68;;;10.10;54.50;;;;;;5130596;27;20193;-82
2021/03/29 07:04:04;;;;;;;13.52;6.03;;;10.20;54.20;;;;;;5133230;27;20201;-82
2021/03/29 07:06:32;;;;;;;10.15;5.28;;;10.20;54.40;;;;;;5133267;27;20266;-84
2021/03/29 07:09:03;;;;;;;7.78;4.60;;;10.20;53.90;;;;;;5131923;27;20601;-83
2021/03/29 07:11:30;;;;;;;6.60;4.82;;;10.30;54.00;;;;;;5132455;27;20197;-83
2021/03/29 07:13:58;;;;;;;7.63;5.50;;;10.30;53.90;;;;;;5133830;27;20225;-84
2021/03/29 07:16:25;;;;;;;8.10;4.70;;;10.40;54.00;;;;;;5134580;27;20225;-83
2021/03/29 07:18:56;;;;;;;6.85;5.00;;;10.50;54.30;;;;;;5133969;27;20198;-84
2021/03/29 07:21:23;;;;;;;8.80;4.95;;;10.50;54.60;;;;;;5133876;27;20197;-84
2021/03/29 07:23:51;;;;;;;5.20;4.70;;;10.50;54.70;;;;;;5133957;27;20723;-84
2021/03/29 07:26:32;;;;;;;7.03;4.93;;;10.50;54.80;;;;;;5134741;27;20765;-84
2021/03/29 07:29:14;;;;;;;7.18;4.32;;;10.50;54.80;;;;;;5134952;27;20291;-83
2021/03/29 07:31:42;;;;;;;5.50;3.80;;;10.50;54.60;;;;;;5134481;27;20204;-84
2021/03/29 07:34:10;;;;;;;7.03;4.45;;;10.70;54.60;;;;;;5133651;27;20193;-84
2021/03/29 07:36:44;;;;;;;7.35;4.70;;;10.80;53.80;;;;;;5134319;27;20221;-83
2021/03/29 07:39:13;;;;;;;3.97;3.65;;;11.00;53.30;;;;;;5134712;27;20192;-84
2021/03/29 07:41:40;;;;;;;5.75;4.10;;;11.10;52.90;;;;;;5134302;27;20230;-83
2021/03/29 07:44:11;;;;;;;4.53;4.13;;;11.20;52.60;;;;;;5134397;27;20200;-83
2021/03/29 07:46:39;;;;;;;7.35;3.63;;;11.20;52.60;;;;;;5133834;27;20962;-84
2021/03/29 07:49:21;;;;;;;4.67;4.27;;;11.30;52.60;;;;;;5134388;27;20197;-83
2021/03/29 07:52:27;;;;;;;6.88;4.53;;;11.30;52.30;;;;;;5134214;27;20638;-83
2021/03/29 07:54:55;;;;;;;8.10;4.78;;;11.60;52.50;;;;;;5134198;27;20200;-84
2021/03/29 07:57:55;;;;;;;11.67;4.67;;;11.70;52.70;;;;;;5133165;27;20233;-83
2021/03/29 08:00:43;;;;;;;6.03;3.73;;;11.80;52.50;;;;;;5127738;27;20607;-84
2021/03/29 08:03:48;;;;;;;4.30;3.87;;;12.00;52.30;;;;;;5110707;28;20684;-84
2021/03/29 08:06:41;;;;;;;4.80;3.93;;;12.20;51.80;;;;;;5113719;28;21008;-84
2021/03/29 08:09:10;;;;;;;3.70;3.13;;;12.40;51.40;;;;;;5118904;27;20673;-84
2021/03/29 08:12:01;;;;;;;3.90;3.47;;;12.50;50.70;;;;;;5132338;27;20602;-84
2021/03/29 08:14:35;;;;;;;4.97;4.20;;;12.60;50.60;;;;;;5133506;27;20617;-83
2021/03/29 08:17:37;;;;;;;4.73;3.10;;;12.70;50.40;;;;;;5133735;27;20679;-84
2021/03/29 08:20:13;;;;;;;8.90;3.23;;;13.00;50.40;;;;;;5133321;27;20653;-84
2021/03/29 08:22:39;;;;;;;6.77;3.43;;;13.00;49.10;;;;;;5133036;27;20625;-84
2021/03/29 08:25:25;;;;;;;8.00;4.60;;;13.30;49.60;;;;;;5133960;27;20619;-84
2021/03/29 08:27:55;;;;;;;4.60;3.60;;;13.40;49.40;;;;;;5133608;27;21033;-84
2021/03/29 08:30:23;;;;;;;5.33;4.33;;;13.30;49.10;;;;;;5133382;27;20603;-83
2021/03/29 08:32:49;;;;;;;6.60;3.30;;;13.30;49.60;;;;;;5133412;27;20603;-84
2021/03/29 08:35:18;;;;;;;3.93;3.07;;;13.40;49.70;;;;;;5133482;27;20607;-84
2021/03/29 08:37:47;;;;;;;9.33;3.73;;;13.50;49.20;;;;;;5133501;27;20654;-83
2021/03/29 08:40:17;;;;;;;4.33;2.93;;;13.60;49.40;;;;;;5133875;27;20603;-83
2021/03/29 08:42:45;;;;;;;6.17;3.80;;;13.70;49.40;;;;;;5134108;27;20611;-84
2021/03/29 08:45:14;;;;;;;5.03;3.40;;;13.80;49.50;;;;;;5134200;27;20612;-83
2021/03/29 08:47:41;;;;;;;4.97;2.87;;;13.90;49.10;;;;;;5133387;27;20618;-84
2021/03/29 08:50:11;;;;;;;3.30;3.00;;;14.00;48.50;;;;;;5133312;27;21159;-83
2021/03/29 08:52:44;;;;;;;2.77;2.30;;;14.20;48.80;;;;;;5132855;27;20676;-83
2021/03/29 08:55:15;;;;;;;2.97;2.77;;;14.20;47.20;;;;;;5132945;27;20622;-83
2021/03/29 08:57:43;;;;;;;5.60;3.67;;;14.20;47.20;;;;;;5131142;27;20760;-83
2021/03/29 09:00:13;;;;;;;4.57;2.83;;;14.30;47.80;;;;;;5132775;27;20972;-83
2021/03/29 09:02:40;;;;;;;3.90;3.30;;;14.60;48.40;;;;;;5113257;27;20616;-83
2021/03/29 09:05:09;;;;;;;4.70;2.87;;;14.80;47.50;;;;;;5112285;28;20628;-83
2021/03/29 09:07:40;;;;;;;6.10;3.10;;;15.00;46.60;;;;;;5112408;28;20621;-83
2021/03/29 09:10:21;;;;;;;5.43;2.73;;;15.20;47.40;;;;;;5111530;28;20614;-84
2021/03/29 09:12:55;;;;;;;4.47;2.37;;;15.20;46.50;;;;;;5111905;28;20624;-83
2021/03/29 09:15:23;;;;;;;4.80;2.60;;;14.70;45.00;;;;;;5112158;28;20638;-82
2021/03/29 09:17:57;;;;;;;4.60;2.47;;;15.00;46.00;;;;;;5111824;28;20660;-82
2021/03/29 09:20:26;;;;;;;2.27;2.07;;;15.20;45.60;;;;;;5112032;28;20620;-82
2021/03/29 09:22:53;;;;;;;4.63;2.80;;;15.40;46.40;;;;;;5122776;27;20672;-82
2021/03/29 09:25:30;;;;;;;3.23;2.07;;;15.60;46.10;;;;;;5132065;27;21219;-82
2021/03/29 09:28:21;;;;;;;3.23;2.20;;;15.40;44.60;;;;;;5132180;27;20729;-82
2021/03/29 09:30:50;;;;;;;5.20;1.90;;;15.80;45.60;;;;;;5131723;27;21202;-82
2021/03/29 09:33:17;;;;;;;6.80;2.20;;;15.80;44.50;;;;;;5132502;27;20634;-82
2021/03/29 09:35:44;;;;;;;4.80;2.70;;;15.60;44.60;;;;;;5132042;27;20990;-82
2021/03/29 09:38:12;;;;;;;6.50;2.60;;;16.00;45.00;;;;;;5132297;27;20685;-82
2021/03/29 09:40:38;;;;;;;2.50;2.00;;;16.20;45.10;;;;;;5132562;27;20614;-82
2021/03/29 09:43:05;;;;;;;11.37;3.47;;;16.40;44.00;;;;;;5131735;27;20618;-82
2021/03/29 09:45:34;;;;;;;3.07;2.30;;;16.20;44.50;;;;;;5131458;27;20614;-82
2021/03/29 09:48:04;;;;;;;5.53;2.10;;;16.40;45.30;;;;;;5132451;27;20607;-81
2021/03/29 09:50:32;;;;;;;4.57;2.63;;;16.40;44.20;;;;;;5132119;27;21185;-82
2021/03/29 09:53:11;;;;;;;4.00;2.10;;;16.30;43.30;;;;;;5131507;27;20607;-82
2021/03/29 09:55:45;;;;;;;3.40;1.93;;;16.50;43.60;;;;;;5131739;27;20618;-83
2021/03/29 09:58:20;;;;;;;4.57;2.33;;;16.40;42.00;;;;;;5130160;27;20622;-81
2021/03/29 10:00:47;;;;;;;4.70;2.53;;;16.20;41.60;;;;;;5131674;27;20618;-81
2021/03/29 10:03:17;;;;;;;3.23;2.00;;;16.40;41.30;;;;;;5131315;27;20655;-81
2021/03/29 10:05:44;;;;;;;3.10;1.80;;;16.30;39.50;;;;;;5131579;27;20603;-82
2021/03/29 10:08:11;;;;;;;3.40;1.97;;;16.30;40.30;;;;;;5131222;27;20634;-81
2021/03/29 10:10:38;;;;;;;2.73;2.10;;;16.40;41.10;;;;;;5131139;27;20626;-84
2021/03/29 10:13:06;;;;;;;2.63;2.07;;;16.70;41.70;;;;;;5131469;27;20614;-82
2021/03/29 10:15:34;;;;;;;2.20;1.70;;;16.90;40.90;;;;;;5132066;27;20695;-82
2021/03/29 10:18:09;;;;;;;3.30;1.80;;;17.10;38.90;;;;;;5131548;27;20759;-81
2021/03/29 10:20:37;;;;;;;5.07;2.10;;;17.10;38.50;;;;;;5131625;27;20648;-81
2021/03/29 10:23:24;;;;;;;3.90;1.90;;;17.00;37.20;;;;;;5130379;27;20610;-81
2021/03/29 10:26:13;;;;;;;4.50;2.23;;;17.20;37.40;;;;;;5131679;27;21214;-81
2021/03/29 10:28:39;;;;;;;1.77;1.67;;;17.10;36.40;;;;;;5131307;27;20617;-81
2021/03/29 10:31:06;;;;;;;2.03;1.93;;;17.20;37.10;;;;;;5130995;27;20611;-81
2021/03/29 10:33:33;;;;;;;2.57;2.37;;;17.20;38.10;;;;;;5130221;27;21115;-81
2021/03/29 10:35:59;;;;;;;3.07;2.30;;;17.30;38.50;;;;;;5129928;27;21004;-81
2021/03/29 10:38:26;;;;;;;3.60;1.90;;;17.70;39.00;;;;;;5131302;28;20599;-83
2021/03/29 10:40:52;;;;;;;2.40;1.53;;;17.60;37.20;;;;;;5131172;28;20969;-81
2021/03/29 10:43:19;;;;;;;2.60;1.80;;;17.50;38.90;;;;;;5129303;28;20989;-82
2021/03/29 10:45:45;;;;;;;3.40;1.83;;;17.80;39.70;;;;;;5130787;27;20607;-83
2021/03/29 10:48:12;;;;;;;1.97;1.87;;;18.20;39.50;;;;;;5131275;28;20611;-83
2021/03/29 10:50:41;;;;;;;3.80;2.00;;;18.50;39.20;;;;;;5130901;28;20752;-83
2021/03/29 10:53:10;;;;;;;4.30;2.07;;;18.60;38.30;;;;;;5124022;28;20983;-83
2021/03/29 10:55:38;;;;;;;4.43;1.77;;;18.90;39.30;;;;;;5131058;28;20615;-83
2021/03/29 10:58:05;;;;;;;3.80;1.97;;;19.00;37.90;;;;;;5126196;28;20695;-82
2021/03/29 11:00:32;;;;;;;4.70;2.20;;;19.00;36.90;;;;;;5121258;28;20620;-82
2021/03/29 11:02:59;;;;;;;3.63;1.80;;;19.10;37.20;;;;;;5129918;27;20953;-82
2021/03/29 11:05:32;;;;;;;3.47;1.80;;;19.20;37.30;;;;;;5131161;28;20625;-82
2021/03/29 11:08:04;;;;;;;1.93;1.83;;;19.30;37.20;;;;;;5110029;28;20661;-82
2021/03/29 11:10:35;;;;;;;2.97;1.83;;;19.40;37.00;;;;;;5125204;27;20636;-82
2021/03/29 11:13:03;;;;;;;3.20;2.33;;;19.60;38.00;;;;;;5129210;28;20630;-82
2021/03/29 11:15:33;;;;;;;5.23;1.70;;;19.60;37.10;;;;;;5127422;28;20631;-82
2021/03/29 11:18:02;;;;;;;2.33;1.93;;;19.40;36.20;;;;;;5130583;28;20665;-82
2021/03/29 11:20:30;;;;;;;2.60;1.70;;;19.60;36.60;;;;;;5128577;28;20668;-82
2021/03/29 11:23:00;;;;;;;6.23;2.37;;;19.70;36.10;;;;;;5128902;28;20664;-82
2021/03/29 11:25:40;;;;;;;3.83;2.03;;;19.70;35.90;;;;;;5102114;27;20748;-84
2021/03/29 11:28:08;;;;;;;4.53;2.10;;;19.20;34.80;;;;;;5094552;28;20608;-84
2021/03/29 11:30:34;;;;;;;3.87;1.87;;;19.00;36.90;;;;;;5100653;28;20626;-84
2021/03/29 11:33:01;;;;;;;3.13;2.07;;;18.90;33.40;;;;;;5086449;28;21019;-84
2021/03/29 11:35:28;;;;;;;2.00;1.70;;;18.90;34.20;;;;;;5089769;28;20612;-84
2021/03/29 11:37:54;;;;;;;4.37;2.13;;;19.00;35.70;;;;;;5087007;28;20612;-84
2021/03/29 11:40:20;;;;;;;3.70;2.00;;;19.10;34.70;;;;;;5088108;28;21053;-84
2021/03/29 11:42:48;;;;;;;5.70;2.10;;;19.30;36.50;;;;;;5090166;28;20612;-84
2021/03/29 11:45:15;;;;;;;1.77;1.50;;;19.30;35.40;;;;;;5108073;28;20659;-83
2021/03/29 11:47:44;;;;;;;5.20;2.07;;;19.20;35.40;;;;;;5107759;28;20627;-84
2021/03/29 11:50:13;;;;;;;4.97;2.20;;;19.40;35.60;;;;;;5107542;28;20619;-83
2021/03/29 11:52:41;;;;;;;2.53;1.70;;;19.50;36.40;;;;;;5106371;28;21163;-84
2021/03/29 11:55:09;;;;;;;1.73;1.60;;;19.20;34.50;;;;;;5107409;28;20657;-83
2021/03/29 11:57:36;;;;;;;3.93;2.20;;;19.00;35.00;;;;;;5106255;28;20725;-83
2021/03/29 12:00:07;;;;;;;2.60;2.00;;;19.20;36.40;;;;;;5103514;28;20631;-84
2021/03/29 12:02:36;;;;;;;1.83;1.67;;;19.10;34.40;;;;;;5086207;28;20613;-84
2021/03/29 12:05:08;;;;;;;3.33;1.80;;;19.10;35.20;;;;;;5085959;28;20696;-84
2021/03/29 12:07:43;;;;;;;2.33;1.83;;;19.20;35.50;;;;;;5087165;28;20605;-84
2021/03/29 12:13:07;;;;;;;2.03;1.70;;;18.90;33.50;;;;;;5049210;28;20651;-83
2021/03/29 12:15:35;;;;;;;3.70;1.67;;;19.00;34.00;;;;;;5086235;28;20623;-82
2021/03/29 12:18:02;;;;;;;5.20;2.03;;;19.20;33.40;;;;;;5086813;28;20712;-83
2021/03/29 12:20:29;;;;;;;1.97;1.77;;;19.50;34.40;;;;;;5086772;28;20613;-84
2021/03/29 12:22:57;;;;;;;2.33;1.90;;;19.70;34.30;;;;;;5086089;28;20613;-83
2021/03/29 12:25:25;;;;;;;3.07;2.27;;;19.70;33.80;;;;;;5086407;28;21017;-83
2021/03/29 12:27:52;;;;;;;2.93;2.13;;;19.60;34.80;;;;;;5086033;28;20624;-84
2021/03/29 12:30:21;;;;;;;3.00;1.90;;;19.50;35.90;;;;;;5086574;28;20604;-83
2021/03/29 12:32:49;;;;;;;6.90;2.17;;;19.50;36.10;;;;;;5086205;28;20613;-83
2021/03/29 12:35:21;;;;;;;3.73;2.20;;;19.50;35.50;;;;;;5086819;28;20660;-84
2021/03/29 12:37:50;;;;;;;3.17;2.00;;;19.90;36.20;;;;;;5072915;28;20624;-83
2021/03/29 12:40:19;;;;;;;3.70;2.00;;;19.80;36.20;;;;;;5072717;28;21050;-83
2021/03/29 12:42:52;;;;;;;3.37;2.30;;;20.00;35.80;;;;;;5072045;28;20598;-83
2021/03/29 12:45:23;;;;;;;2.23;2.03;;;20.10;35.20;;;;;;5072902;28;20691;-83
2021/03/29 12:47:52;;;;;;;2.40;1.90;;;20.40;35.30;;;;;;5072711;28;20723;-83
2021/03/29 12:50:20;;;;;;;2.33;2.13;;;20.10;34.00;;;;;;5072514;28;20659;-83
2021/03/29 12:52:49;;;;;;;2.57;2.10;;;20.00;34.60;;;;;;5072286;28;20939;-82
2021/03/29 12:55:18;;;;;;;4.10;2.27;;;20.00;34.10;;;;;;5072466;28;20593;-83
2021/03/29 12:57:45;;;;;;;4.23;1.90;;;20.30;36.20;;;;;;5071116;28;20636;-83
2021/03/29 13:00:13;;;;;;;2.30;1.90;;;20.60;35.10;;;;;;5072389;28;20636;-83
2021/03/29 13:02:43;;;;;;;3.00;1.57;;;20.60;34.00;;;;;;5052786;28;20664;-83
2021/03/29 13:05:16;;;;;;;2.23;1.70;;;20.50;35.30;;;;;;5052085;28;20741;-83
2021/03/29 13:07:50;;;;;;;2.50;1.93;;;20.80;35.90;;;;;;5051797;28;21170;-83